There are no active watches, warnings or advisories


Thunder radar more information blitzortung!


Rain radar more information rain snow radar


Visit our other weather sites:

Template documentation
and downloads

And another site



Nearby METAR Reports

  
KAVL - Asheville Regional Airprot, NC
Distance from station: S 11.7mi, 19km
Updated: Feb 24 2018 11:54 am
Mostly Cloudy
Mostly Cloudy  
 Wind from S
Wind: S 12 mph , 19 km/h, Gust: 21 mph , 33 km/h
Temperature:  70°F , 21°C
Dew Point:  55°F , 13°C
Humidity:  60%
Barometer:  30.19 inHg , 1022.4 hPa
Clouds:  Mostly Cloudy
Visibility:   10 miles , 16 km
Cloud details:  Few Clouds 8000 ft
Mostly Cloudy 11000 ft
2018/02/24 16:54 KAVL 241654Z 19010G18KT 10SM FEW080 BKN110 21/13 A3019 RMK AO2 SLP204 T02110133
KGSP - Greer (GSP Airport) SC USA
Distance from station: SSE 52mi, 84km
Updated: Feb 24 2018 11:53 am
Mostly Cloudy
Mostly Cloudy  
 Wind from SSW
Wind: SSW 10 mph , 17 km/h
Temperature:  72°F , 22°C
Dew Point:  63°F , 17°C
Humidity:  73%
Barometer:  30.20 inHg , 1022.7 hPa
Clouds:  Mostly Cloudy
Visibility:   10 miles , 16 km
Cloud details:  Mostly Cloudy 10000 ft
2018/02/24 16:53 KGSP 241653Z 21009KT 10SM BKN100 22/17 A3020 RMK AO2 SLP219 T02220167
KCLT - Charlotte, NC USA
Distance from station: ESE 92mi, 149km
Updated: Feb 24 2018 11:52 am
Mostly Cloudy
Mostly Cloudy  
 Wind from SSW
Wind: SSW 10 mph , 17 km/h
Temperature:  72°F , 22°C
Dew Point:  63°F , 17°C
Humidity:  73%
Barometer:  30.20 inHg , 1022.7 hPa
Clouds:  Mostly Cloudy
Visibility:   10 miles , 16 km
Cloud details:  Partly Cloudy 1700 ft
Mostly Cloudy 12000 ft
2018/02/24 16:52 KCLT 241652Z 21009KT 10SM SCT017 BKN120 22/17 A3020 RMK AO2 SLP221 T02170172
KRHP - Andrews, Andrews-Murphy Airport, NC, USA
Distance from station: WSW 81mi, 130km
Updated: Feb 24 2018 12:35 pm
Overcast
Overcast  
 Wind from SW
Wind: SW 9 mph , 15 km/h
Temperature:  70°F , 21°C
Dew Point:  54°F , 12°C
Humidity:  57%
Barometer:  30.15 inHg , 1021 hPa
Clouds:  Overcast
Visibility:   10 miles , 16 km
Cloud details:  Partly Cloudy 4800 ft
Mostly Cloudy 5000 ft
Overcast 7000 ft
2018/02/24 17:35 KRHP 241735Z AUTO 23008KT 10SM SCT048 BKN050 OVC070 21/12 A3015 RMK AO2 T02130119
KHKY - Hickory Reginal Airport, NC, USA
Distance from station: E 65mi, 104km
Updated: Feb 24 2018 11:53 am
Clear
Clear  
 Wind from SSW
Wind: SSW 16 mph , 26 km/h, Gust: 20 mph , 31 km/h
Temperature:  70°F , 21°C
Dew Point:  61°F , 16°C
Humidity:  73%
Barometer:  30.17 inHg , 1021.7 hPa
Clouds:  Clear
Visibility:   10 miles , 16 km
2018/02/24 16:53 KHKY 241653Z 20014G17KT 10SM CLR 21/16 A3017 RMK AO2 SLP199 T02060161 $
KEHO - Shelby Municipal Airport, NC, USA
Distance from station: ESE 60mi, 96km
Updated: Feb 24 2018 12:40 pm
Mostly Cloudy
Mostly Cloudy  
 Wind from SSW
Wind: SSW 12 mph , 19 km/h
Temperature:  72°F , 22°C
Dew Point:  61°F , 16°C
Humidity:  69%
Barometer:  30.17 inHg , 1021.7 hPa
Clouds:  Mostly Cloudy
Visibility:   10 miles , 16 km
Cloud details:  Partly Cloudy 2000 ft
Partly Cloudy 2500 ft
Mostly Cloudy 11000 ft
2018/02/24 17:40 KEHO 241740Z AUTO 21010KT 10SM SCT020 SCT025 BKN110 22/16 A3017 RMK AO2 T02190160
KATL - Atlanta, De Kalb-Peachtree Airport, GA, USA
Distance from station: SSW 172mi, 237km
Updated: Feb 24 2018 11:52 am
Mostly Cloudy
Mostly Cloudy  
 Wind from SSW
Wind: SSW 16 mph , 26 km/h, Gust: 21 mph , 33 km/h
Temperature:  73°F , 23°C
Dew Point:  61°F , 16°C
Humidity:  65%
Barometer:  30.19 inHg , 1022.4 hPa
Clouds:  Mostly Cloudy
Visibility:   10 miles , 16 km
Cloud details:  Few Clouds 3000 ft
Mostly Cloudy 12000 ft
2018/02/24 16:52 KATL 241652Z 21014G18KT 10SM FEW030 BKN120 23/16 A3019 RMK AO2 SLP216 T02330156
KTYS - Knoxville, McGhee Tyson Airport, TN, USA
Distance from station: WNW 80mi, 130km
Updated: Feb 24 2018 11:53 am
Mostly Cloudy
Mostly Cloudy  
 Wind from SW
Wind: SW 23 mph , 37 km/h, Gust: 31 mph , 50 km/h
Temperature:  73°F , 23°C
Dew Point:  57°F , 14°C
Humidity:  57%
Barometer:  30.09 inHg , 1019 hPa
Clouds:  Mostly Cloudy
Visibility:   10 miles , 16 km
Cloud details:  Partly Cloudy 4000 ft
Mostly Cloudy 7500 ft
Mostly Cloudy 8500 ft
2018/02/24 16:53 KTYS 241653Z 22020G27KT 10SM SCT040 BKN075 BKN085 23/14 A3009 RMK AO2 PK WND 22027/1645 SLP181 T02280139
KRDU - Durham, Raleigh-Durham Airport, NC USA
Distance from station: E 205mi, 330km
Updated: Feb 24 2018 12:13 pm
Mostly Cloudy
Mostly Cloudy  
 Wind from SW
Wind: SW 16 mph , 26 km/h
Temperature:  72°F , 22°C
Dew Point:  61°F , 16°C
Humidity:  69%
Barometer:  30.19 inHg , 1022.4 hPa
Clouds:  Mostly Cloudy
Visibility:   10 miles , 16 km
Cloud details:  Partly Cloudy 2500 ft
Mostly Cloudy 14000 ft
Mostly Cloudy 25000 ft
2018/02/24 17:13 KRDU 241713Z 23014KT 10SM SCT025 BKN140 BKN250 22/16 A3019 RMK AO2 T02170156
 

Script developed by  Saratoga-weather.org Adapted for the template by  Weerstation Leuven

You find our weather info also at:


Weather Underground

AWEKAS

Citizen Weather Observer Program (CWOP)

HAMweather, WeatherForYou, PWS Weather

Equipment we use:


Weather-station
Davis VP2

Weather-program
Weather Display

Weather-server
Dell Poweredge SC420

Provider
1&1

Davis VP2

Weather Display

Dell Poweredge SC420

1&1